Time;durP1;ratioP1;P1;durP2;ratioP2;P2;SDS_P1;SDS_P2;PMS_P1;PMS_P2;Temp;Humidity;BMP_temperature;BMP_pressure;BME280_temperature;BME280_humidity;BME280_pressure;Samples;Min_cycle;Max_cycle;Signal;HPM_P1;HPM_P2
2020/12/28 00:00:45;;;;;;;0.40;0.40;;;3.40;93.50;;;;;;5113113;28;20381;-77
2020/12/28 00:03:11;;;;;;;1.10;0.60;;;3.30;93.70;;;;;;5111102;28;20387;-76
2020/12/28 00:05:36;;;;;;;2.17;0.82;;;3.30;94.20;;;;;;5112513;28;20372;-76
2020/12/28 00:08:02;;;;;;;0.57;0.55;;;3.30;94.00;;;;;;5112371;28;20863;-76
2020/12/28 00:10:28;;;;;;;0.70;0.57;;;3.30;93.80;;;;;;5112261;28;20449;-77
2020/12/28 00:12:53;;;;;;;0.70;0.60;;;3.30;93.60;;;;;;5112455;28;20412;-76
2020/12/28 00:15:26;;;;;;;0.90;0.60;;;3.20;93.50;;;;;;5112457;28;20380;-77
2020/12/28 00:17:54;;;;;;;0.50;0.50;;;3.20;93.60;;;;;;5110988;28;20920;-77
2020/12/28 00:20:21;;;;;;;1.02;0.50;;;3.20;93.70;;;;;;5112747;28;20381;-77
2020/12/28 00:22:46;;;;;;;0.90;0.70;;;3.10;93.80;;;;;;5112846;28;20487;-77
2020/12/28 00:25:13;;;;;;;0.57;0.52;;;3.10;93.60;;;;;;5112490;28;20408;-77
2020/12/28 00:27:38;;;;;;;0.40;0.40;;;3.10;94.40;;;;;;5112383;28;20437;-77
2020/12/28 00:30:05;;;;;;;0.70;0.60;;;3.10;94.00;;;;;;5112824;28;20387;-77
2020/12/28 00:32:35;;;;;;;1.10;0.50;;;3.10;93.90;;;;;;5111185;28;20475;-76
2020/12/28 00:35:06;;;;;;;1.50;0.60;;;3.10;93.90;;;;;;5112711;28;20894;-77
2020/12/28 00:37:32;;;;;;;0.60;0.60;;;3.10;93.90;;;;;;5110547;28;20453;-77
2020/12/28 00:39:57;;;;;;;1.40;0.60;;;3.10;94.10;;;;;;5112654;28;20444;-77
2020/12/28 00:42:23;;;;;;;1.42;0.60;;;3.00;94.10;;;;;;5112223;28;20372;-77
2020/12/28 00:44:49;;;;;;;0.50;0.50;;;3.00;94.30;;;;;;5112343;28;20384;-76
2020/12/28 00:47:15;;;;;;;0.50;0.50;;;3.10;93.80;;;;;;5111532;28;20795;-77
2020/12/28 00:49:41;;;;;;;0.60;0.60;;;3.10;93.70;;;;;;5112060;28;20426;-77
2020/12/28 00:52:06;;;;;;;0.63;0.60;;;3.10;93.40;;;;;;5110529;28;20376;-77
2020/12/28 00:54:35;;;;;;;0.50;0.50;;;3.10;93.80;;;;;;5110728;28;20795;-77
2020/12/28 00:57:01;;;;;;;0.60;0.60;;;3.10;93.80;;;;;;5111410;28;20464;-77
2020/12/28 00:59:27;;;;;;;0.50;0.50;;;3.00;94.10;;;;;;5111532;28;20380;-77
2020/12/28 01:01:57;;;;;;;0.95;0.70;;;3.10;93.80;;;;;;5112255;28;20381;-77
2020/12/28 01:04:23;;;;;;;0.70;0.50;;;3.00;93.80;;;;;;5111733;28;20742;-77
2020/12/28 01:06:48;;;;;;;0.63;0.55;;;3.10;94.00;;;;;;5111448;28;20419;-77
2020/12/28 01:09:14;;;;;;;1.05;0.60;;;3.10;94.00;;;;;;5109513;28;20419;-77
2020/12/28 01:11:40;;;;;;;1.23;0.70;;;3.10;94.20;;;;;;5111633;28;20372;-77
2020/12/28 01:14:05;;;;;;;0.90;0.55;;;3.10;94.10;;;;;;5110133;28;20479;-77
2020/12/28 01:16:31;;;;;;;0.90;0.60;;;3.10;93.80;;;;;;5111320;28;20404;-77
2020/12/28 01:18:57;;;;;;;0.90;0.60;;;3.10;94.10;;;;;;5111459;28;20404;-77
2020/12/28 01:21:23;;;;;;;0.73;0.73;;;3.10;94.10;;;;;;5110374;28;20387;-77
2020/12/28 01:23:49;;;;;;;1.17;0.70;;;3.10;94.20;;;;;;5110431;28;20377;-77
2020/12/28 01:26:15;;;;;;;0.88;0.73;;;3.10;94.20;;;;;;5109281;27;20396;-77
2020/12/28 01:28:41;;;;;;;0.90;0.68;;;3.20;94.30;;;;;;5110667;28;20373;-77
2020/12/28 01:31:07;;;;;;;0.50;0.50;;;3.10;94.30;;;;;;5111226;28;20871;-77
2020/12/28 01:33:32;;;;;;;0.70;0.70;;;3.20;93.80;;;;;;5111291;28;20383;-77
2020/12/28 01:35:58;;;;;;;1.73;0.50;;;3.20;94.40;;;;;;5111455;28;20419;-76
2020/12/28 01:38:23;;;;;;;0.90;0.50;;;3.20;94.20;;;;;;5110886;28;20438;-77
2020/12/28 01:40:49;;;;;;;0.90;0.70;;;3.20;94.20;;;;;;5110991;28;20387;-77
2020/12/28 01:43:16;;;;;;;1.50;0.70;;;3.30;93.90;;;;;;5110718;28;20425;-76
2020/12/28 01:45:41;;;;;;;0.60;0.60;;;3.30;94.00;;;;;;5109909;28;20380;-77
2020/12/28 01:48:07;;;;;;;1.33;0.60;;;3.30;94.20;;;;;;5110390;28;20445;-77
2020/12/28 01:50:33;;;;;;;1.00;0.70;;;3.30;94.20;;;;;;5111136;28;20852;-77
2020/12/28 01:52:58;;;;;;;0.60;0.60;;;3.30;94.00;;;;;;5109313;28;20385;-77
2020/12/28 01:55:24;;;;;;;1.13;0.65;;;3.30;94.10;;;;;;5109566;28;20396;-77
2020/12/28 01:57:50;;;;;;;0.68;0.63;;;3.30;94.60;;;;;;5109966;28;20507;-77
2020/12/28 02:00:16;;;;;;;0.68;0.68;;;3.30;94.10;;;;;;5110753;28;20514;-76
2020/12/28 02:02:41;;;;;;;0.70;0.70;;;3.30;94.00;;;;;;5110855;28;20368;-77
2020/12/28 02:05:07;;;;;;;0.70;0.60;;;3.30;94.30;;;;;;5110663;28;20426;-76
2020/12/28 02:07:37;;;;;;;1.08;0.60;;;3.30;94.20;;;;;;5110614;28;20771;-76
2020/12/28 02:10:10;;;;;;;0.80;0.70;;;3.30;94.20;;;;;;5109368;28;20860;-77
2020/12/28 02:12:37;;;;;;;0.80;0.68;;;3.40;94.20;;;;;;5111117;28;20381;-77
2020/12/28 02:15:06;;;;;;;0.60;0.60;;;3.40;94.40;;;;;;5109176;28;20765;-77
2020/12/28 02:17:32;;;;;;;0.77;0.70;;;3.30;94.50;;;;;;5110222;28;20404;-77
2020/12/28 02:19:58;;;;;;;0.70;0.60;;;3.30;94.70;;;;;;5110545;28;20842;-76
2020/12/28 02:22:24;;;;;;;0.80;0.77;;;3.40;94.40;;;;;;5110767;28;20404;-77
2020/12/28 02:24:49;;;;;;;1.20;0.60;;;3.30;94.50;;;;;;5109267;28;20412;-77
2020/12/28 02:27:15;;;;;;;3.67;0.80;;;3.40;94.60;;;;;;5109930;28;20372;-77
2020/12/28 02:29:40;;;;;;;0.75;0.68;;;3.30;94.80;;;;;;5110806;28;20372;-76
2020/12/28 02:32:06;;;;;;;1.30;0.90;;;3.40;94.60;;;;;;5110400;28;20868;-76
2020/12/28 02:34:32;;;;;;;0.80;0.68;;;3.40;94.80;;;;;;5110666;28;20914;-77
2020/12/28 02:36:57;;;;;;;0.98;0.80;;;3.30;94.90;;;;;;5110143;28;20875;-77
2020/12/28 02:39:23;;;;;;;1.20;0.80;;;3.30;95.00;;;;;;5113434;28;20419;-77
2020/12/28 02:41:48;;;;;;;1.60;0.90;;;3.30;95.20;;;;;;5113934;28;20425;-77
2020/12/28 02:44:14;;;;;;;0.80;0.80;;;3.30;95.20;;;;;;5113359;28;20407;-77
2020/12/28 02:46:40;;;;;;;2.10;1.00;;;3.30;95.30;;;;;;5113890;28;20913;-77
2020/12/28 02:49:05;;;;;;;0.75;0.70;;;3.30;95.00;;;;;;5114905;28;20505;-76
2020/12/28 02:51:31;;;;;;;0.98;0.80;;;3.30;95.20;;;;;;5113962;28;20918;-77
2020/12/28 02:53:56;;;;;;;1.23;0.85;;;3.30;95.20;;;;;;5113274;28;20395;-77
2020/12/28 02:56:22;;;;;;;2.42;0.90;;;3.30;95.10;;;;;;5114078;28;20467;-77
2020/12/28 02:58:47;;;;;;;0.93;0.82;;;3.30;95.00;;;;;;5112800;28;20395;-77
2020/12/28 03:01:13;;;;;;;2.20;0.80;;;3.30;95.20;;;;;;5114262;28;20415;-77
2020/12/28 03:03:39;;;;;;;0.90;0.85;;;3.30;95.30;;;;;;5113989;28;20368;-77
2020/12/28 03:06:04;;;;;;;0.82;0.70;;;3.30;95.30;;;;;;5112963;28;20474;-77
2020/12/28 03:08:30;;;;;;;1.20;0.90;;;3.30;95.40;;;;;;5112456;28;20880;-77
2020/12/28 03:10:55;;;;;;;0.90;0.90;;;3.30;95.10;;;;;;5112362;28;20369;-77
2020/12/28 03:13:21;;;;;;;1.35;0.88;;;3.30;95.20;;;;;;5113966;28;20518;-77
2020/12/28 03:15:46;;;;;;;1.27;0.90;;;3.30;95.20;;;;;;5114153;28;20377;-76
2020/12/28 03:18:12;;;;;;;0.98;0.95;;;3.30;95.10;;;;;;5113165;28;20994;-77
2020/12/28 03:20:37;;;;;;;3.42;0.98;;;3.30;95.30;;;;;;5113875;28;20383;-77
2020/12/28 03:23:03;;;;;;;1.13;0.90;;;3.30;95.10;;;;;;5113344;28;20368;-77
2020/12/28 03:25:29;;;;;;;1.00;0.90;;;3.30;95.30;;;;;;5113789;28;20429;-76
2020/12/28 03:27:54;;;;;;;0.90;0.80;;;3.30;95.30;;;;;;5112997;28;20863;-76
2020/12/28 03:30:20;;;;;;;2.00;0.98;;;3.30;95.60;;;;;;5113432;28;20445;-77
2020/12/28 03:32:46;;;;;;;1.30;1.20;;;3.30;95.20;;;;;;5112208;28;20388;-77
2020/12/28 03:35:11;;;;;;;1.00;0.90;;;3.30;95.10;;;;;;5113233;28;20720;-77
2020/12/28 03:37:37;;;;;;;1.40;1.00;;;3.30;95.10;;;;;;5112186;28;20465;-76
2020/12/28 03:40:04;;;;;;;0.97;0.87;;;3.30;94.80;;;;;;5111864;28;20475;-77
2020/12/28 03:42:29;;;;;;;3.17;0.80;;;3.30;94.90;;;;;;5113373;28;20462;-77
2020/12/28 03:44:55;;;;;;;1.20;1.00;;;3.30;94.60;;;;;;5112882;28;20418;-77
2020/12/28 03:47:21;;;;;;;1.10;0.90;;;3.30;94.80;;;;;;5111461;28;20384;-77
2020/12/28 03:49:46;;;;;;;0.82;0.82;;;3.20;95.10;;;;;;5112513;28;20375;-77
2020/12/28 03:52:13;;;;;;;1.63;0.90;;;3.20;95.00;;;;;;5113103;28;20385;-77
2020/12/28 03:54:38;;;;;;;2.10;0.90;;;3.20;94.90;;;;;;5111500;28;20935;-77
2020/12/28 03:57:04;;;;;;;1.25;0.90;;;3.20;95.10;;;;;;5112262;28;20487;-76
2020/12/28 03:59:30;;;;;;;1.10;1.00;;;3.20;95.10;;;;;;5113317;28;20384;-78
2020/12/28 04:01:55;;;;;;;1.85;0.90;;;3.20;94.80;;;;;;5112642;28;20379;-77
2020/12/28 04:04:21;;;;;;;0.88;0.80;;;3.20;94.80;;;;;;5112868;28;20402;-77
2020/12/28 04:06:46;;;;;;;1.20;0.90;;;3.20;94.90;;;;;;5111867;28;20467;-77
2020/12/28 04:09:12;;;;;;;1.30;1.10;;;3.20;94.90;;;;;;5112580;28;20380;-77
2020/12/28 04:11:37;;;;;;;1.10;0.95;;;3.30;94.70;;;;;;5112393;28;20381;-77
2020/12/28 04:14:03;;;;;;;1.23;1.10;;;3.30;94.60;;;;;;5111332;28;20430;-77
2020/12/28 04:16:28;;;;;;;1.23;1.02;;;3.30;94.60;;;;;;5112255;28;20439;-77
2020/12/28 04:18:54;;;;;;;1.33;1.02;;;3.30;94.90;;;;;;5111325;28;20395;-77
2020/12/28 04:21:20;;;;;;;2.40;1.10;;;3.30;94.80;;;;;;5112010;28;20849;-77
2020/12/28 04:23:45;;;;;;;1.80;1.00;;;3.30;94.40;;;;;;5112505;28;20383;-77
2020/12/28 04:26:11;;;;;;;1.90;1.10;;;3.30;94.40;;;;;;5112244;28;20381;-77
2020/12/28 04:28:36;;;;;;;1.93;1.07;;;3.30;94.70;;;;;;5111719;28;20372;-76
2020/12/28 04:31:02;;;;;;;1.17;1.07;;;3.30;95.00;;;;;;5112109;28;20456;-77
2020/12/28 04:33:28;;;;;;;1.40;1.30;;;3.30;95.00;;;;;;5112054;28;20376;-77
2020/12/28 04:35:54;;;;;;;1.48;1.10;;;3.30;94.60;;;;;;5112255;28;20403;-77
2020/12/28 04:38:19;;;;;;;1.55;1.30;;;3.40;94.80;;;;;;5111575;28;20373;-77
2020/12/28 04:40:45;;;;;;;2.72;1.20;;;3.30;95.00;;;;;;5112509;28;20458;-77
2020/12/28 04:43:12;;;;;;;2.42;1.10;;;3.30;95.00;;;;;;5110558;28;20734;-76
2020/12/28 04:45:39;;;;;;;2.33;1.35;;;3.20;95.40;;;;;;5110786;28;20403;-76
2020/12/28 04:48:09;;;;;;;1.65;1.38;;;3.20;95.80;;;;;;5111299;28;20819;-76
2020/12/28 04:50:39;;;;;;;1.45;1.35;;;3.20;95.60;;;;;;5112509;28;20815;-77
2020/12/28 04:53:05;;;;;;;2.03;1.30;;;3.20;95.30;;;;;;5111663;28;20376;-77
2020/12/28 04:55:31;;;;;;;1.38;1.23;;;3.20;95.10;;;;;;5111927;28;20478;-77
2020/12/28 04:57:58;;;;;;;3.65;1.30;;;3.20;95.10;;;;;;5109729;28;20491;-76
2020/12/28 05:00:23;;;;;;;1.95;1.38;;;3.20;95.20;;;;;;5111363;28;20794;-77
2020/12/28 05:02:49;;;;;;;2.45;1.10;;;3.20;95.40;;;;;;5111289;28;20424;-77
2020/12/28 05:05:15;;;;;;;1.33;1.23;;;3.20;95.30;;;;;;5111556;28;20376;-77
2020/12/28 05:07:48;;;;;;;1.50;1.10;;;3.20;95.20;;;;;;5111335;28;20870;-77
2020/12/28 05:10:26;;;;;;;1.50;1.40;;;3.10;95.60;;;;;;5111480;28;20380;-77
2020/12/28 05:12:52;;;;;;;1.40;1.30;;;3.20;95.60;;;;;;5111580;28;20381;-77
2020/12/28 05:15:19;;;;;;;1.70;1.40;;;3.20;95.00;;;;;;5111309;28;20368;-77
2020/12/28 05:17:54;;;;;;;2.05;1.50;;;3.20;95.40;;;;;;5111348;28;20499;-77
2020/12/28 05:20:24;;;;;;;1.50;1.40;;;3.10;95.10;;;;;;5111057;28;20369;-77
2020/12/28 05:22:53;;;;;;;1.52;1.40;;;3.20;95.10;;;;;;5110979;28;20384;-77
2020/12/28 05:25:20;;;;;;;1.55;1.45;;;3.20;95.20;;;;;;5110318;28;20424;-77
2020/12/28 05:27:50;;;;;;;1.40;1.30;;;3.20;95.30;;;;;;5109380;28;20419;-77
2020/12/28 05:30:19;;;;;;;1.63;1.40;;;3.20;95.10;;;;;;5111423;28;20503;-77
2020/12/28 05:32:46;;;;;;;1.85;1.63;;;3.20;95.10;;;;;;5109673;28;20732;-77
2020/12/28 05:35:15;;;;;;;2.15;1.52;;;3.10;95.20;;;;;;5111358;28;20434;-77
2020/12/28 05:37:41;;;;;;;2.05;1.80;;;3.10;95.30;;;;;;5110459;28;20404;-77
2020/12/28 05:40:10;;;;;;;2.20;1.73;;;3.20;95.30;;;;;;5109810;28;20389;-77
2020/12/28 05:42:37;;;;;;;2.35;1.95;;;3.20;95.20;;;;;;5110828;28;20392;-77
2020/12/28 05:45:08;;;;;;;2.25;1.90;;;3.20;95.30;;;;;;5111177;28;20384;-77
2020/12/28 05:47:40;;;;;;;3.10;2.10;;;3.20;95.10;;;;;;5110311;28;20373;-77
2020/12/28 05:50:06;;;;;;;3.13;2.30;;;3.10;95.40;;;;;;5110872;28;20381;-77
2020/12/28 05:52:35;;;;;;;3.03;2.08;;;3.10;95.30;;;;;;5111045;28;20471;-77
2020/12/28 05:55:02;;;;;;;2.58;1.90;;;3.10;95.10;;;;;;5109293;28;20418;-77
2020/12/28 05:57:28;;;;;;;2.75;2.30;;;3.10;95.10;;;;;;5109319;28;20404;-77
2020/12/28 05:59:56;;;;;;;3.65;2.13;;;3.20;94.90;;;;;;5110675;28;20384;-77
2020/12/28 06:02:25;;;;;;;3.33;2.28;;;3.10;94.90;;;;;;5110584;28;20677;-77
2020/12/28 06:04:52;;;;;;;2.20;1.73;;;3.10;94.80;;;;;;5110612;28;20716;-77
2020/12/28 06:07:21;;;;;;;4.10;2.00;;;3.20;95.00;;;;;;5110860;28;20755;-77
2020/12/28 06:09:53;;;;;;;3.67;1.80;;;3.10;95.00;;;;;;5110176;28;20380;-77
2020/12/28 06:12:19;;;;;;;2.40;1.88;;;3.20;95.30;;;;;;5110104;28;20741;-77
2020/12/28 06:14:44;;;;;;;2.47;1.90;;;3.20;95.00;;;;;;5114990;28;20381;-77
2020/12/28 06:17:12;;;;;;;3.90;2.20;;;3.20;95.00;;;;;;5114378;28;20482;-77
2020/12/28 06:19:39;;;;;;;2.45;2.10;;;3.20;94.80;;;;;;5115030;28;20378;-77
2020/12/28 06:22:22;;;;;;;2.85;2.22;;;3.20;94.40;;;;;;5113170;28;20775;-77
2020/12/28 06:25:08;;;;;;;3.30;2.13;;;3.20;94.90;;;;;;5114910;28;20665;-77
2020/12/28 06:27:34;;;;;;;5.18;2.30;;;3.20;95.00;;;;;;5112767;28;20396;-77
2020/12/28 06:30:16;;;;;;;2.60;2.03;;;3.20;94.80;;;;;;5114685;28;20761;-77
2020/12/28 06:32:44;;;;;;;3.47;2.03;;;3.20;95.10;;;;;;5114831;28;20418;-77
2020/12/28 06:35:12;;;;;;;3.42;2.47;;;3.20;94.90;;;;;;5114504;28;20471;-77
2020/12/28 06:37:47;;;;;;;3.30;2.20;;;3.20;95.10;;;;;;5112840;28;20565;-77
2020/12/28 06:40:13;;;;;;;2.92;2.35;;;3.20;95.10;;;;;;5112922;28;21008;-77
2020/12/28 06:42:40;;;;;;;2.90;2.60;;;3.30;95.00;;;;;;5113408;28;20380;-77
2020/12/28 06:45:14;;;;;;;3.70;2.80;;;3.20;94.90;;;;;;5114276;28;20380;-77
2020/12/28 06:47:41;;;;;;;3.30;2.40;;;3.30;94.60;;;;;;5114316;28;20528;-77
2020/12/28 06:50:06;;;;;;;3.60;2.58;;;3.30;94.70;;;;;;5114324;28;20368;-77
2020/12/28 06:52:32;;;;;;;3.78;2.83;;;3.30;94.90;;;;;;5114333;28;20422;-77
2020/12/28 06:55:11;;;;;;;4.13;3.10;;;3.30;94.90;;;;;;5114244;28;20400;-77
2020/12/28 06:57:37;;;;;;;3.75;2.63;;;3.30;94.60;;;;;;5112023;28;20414;-77
2020/12/28 07:00:05;;;;;;;4.03;2.50;;;3.30;94.80;;;;;;5113970;28;20765;-77
2020/12/28 07:02:32;;;;;;;4.70;2.80;;;3.30;94.80;;;;;;5113079;28;20411;-77
2020/12/28 07:05:00;;;;;;;2.40;2.03;;;3.30;94.90;;;;;;5114199;28;20455;-77
2020/12/28 07:07:26;;;;;;;4.03;2.40;;;3.30;94.50;;;;;;5113362;28;20393;-77
2020/12/28 07:09:51;;;;;;;3.45;2.60;;;3.40;94.60;;;;;;5112784;28;20385;-77
2020/12/28 07:12:20;;;;;;;3.55;2.22;;;3.30;94.70;;;;;;5113610;28;20387;-77
2020/12/28 07:14:46;;;;;;;2.15;1.95;;;3.40;94.50;;;;;;5112657;28;20873;-77
2020/12/28 07:17:11;;;;;;;3.17;2.40;;;3.40;94.50;;;;;;5111768;28;20473;-77
2020/12/28 07:19:37;;;;;;;2.93;2.30;;;3.40;94.50;;;;;;5112631;28;20400;-77
2020/12/28 07:22:03;;;;;;;2.90;2.03;;;3.40;94.50;;;;;;5113584;28;20492;-77
2020/12/28 07:24:28;;;;;;;3.13;2.00;;;3.30;94.40;;;;;;5112921;28;21263;-77
2020/12/28 07:26:54;;;;;;;2.60;1.87;;;3.30;94.30;;;;;;5113435;28;20416;-77
2020/12/28 07:29:20;;;;;;;2.57;1.80;;;3.30;94.50;;;;;;5112311;28;20500;-77
2020/12/28 07:31:46;;;;;;;2.07;1.60;;;3.30;94.60;;;;;;5113896;28;20430;-77
2020/12/28 07:34:14;;;;;;;2.53;1.80;;;3.30;94.20;;;;;;5113509;28;20812;-77
2020/12/28 07:36:43;;;;;;;2.00;1.65;;;3.30;94.40;;;;;;5113275;28;20415;-77
2020/12/28 07:39:11;;;;;;;2.80;1.63;;;3.30;94.00;;;;;;5113416;28;20380;-77
2020/12/28 07:41:37;;;;;;;3.00;1.60;;;3.30;94.20;;;;;;5113809;28;20771;-77
2020/12/28 07:44:03;;;;;;;1.88;1.52;;;3.30;93.90;;;;;;5112012;28;20459;-77
2020/12/28 07:46:31;;;;;;;2.33;1.63;;;3.30;94.00;;;;;;5112438;28;20388;-77
2020/12/28 07:49:23;;;;;;;3.85;1.40;;;3.30;94.20;;;;;;5112803;28;20408;-77
2020/12/28 07:52:15;;;;;;;9.60;3.30;;;3.30;93.80;;;;;;5113313;28;20441;-78
2020/12/28 07:54:51;;;;;;;2.10;1.38;;;3.20;94.00;;;;;;5105071;28;20452;-78
2020/12/28 07:57:22;;;;;;;1.95;1.30;;;3.20;93.60;;;;;;5111334;28;20404;-77
2020/12/28 07:59:54;;;;;;;3.00;1.30;;;3.20;93.90;;;;;;5112108;28;20428;-77
2020/12/28 08:02:44;;;;;;;1.98;1.50;;;3.10;93.80;;;;;;5112809;28;20445;-77
2020/12/28 08:05:11;;;;;;;2.88;1.30;;;3.20;93.80;;;;;;5112696;28;20888;-77
2020/12/28 08:07:37;;;;;;;2.75;1.33;;;3.20;93.70;;;;;;5112518;28;20416;-77
2020/12/28 08:10:10;;;;;;;2.20;1.20;;;3.20;93.80;;;;;;5112528;28;20777;-78
2020/12/28 08:12:40;;;;;;;3.72;1.20;;;3.20;93.90;;;;;;5112786;28;20467;-77
2020/12/28 08:15:05;;;;;;;2.40;1.20;;;3.20;93.50;;;;;;5112755;28;20396;-78
2020/12/28 08:17:31;;;;;;;2.43;1.03;;;3.20;93.60;;;;;;5112272;28;20420;-77
2020/12/28 08:20:13;;;;;;;3.70;1.07;;;3.20;93.20;;;;;;5112402;28;20767;-77
2020/12/28 08:22:40;;;;;;;1.45;1.00;;;3.20;93.30;;;;;;5112414;28;20381;-78
2020/12/28 08:25:07;;;;;;;1.00;0.90;;;3.20;93.40;;;;;;5111324;28;20525;-77
2020/12/28 08:27:33;;;;;;;1.45;0.90;;;3.20;93.60;;;;;;5111756;28;20384;-77
2020/12/28 08:29:59;;;;;;;1.50;0.90;;;3.10;93.50;;;;;;5111502;28;20365;-77
2020/12/28 08:32:30;;;;;;;1.33;1.02;;;3.10;93.60;;;;;;5109868;28;20844;-77
2020/12/28 08:35:00;;;;;;;1.50;0.90;;;3.10;93.70;;;;;;5112348;28;20377;-77
2020/12/28 08:37:27;;;;;;;1.30;0.90;;;3.00;93.50;;;;;;5110698;28;20432;-78
2020/12/28 08:39:52;;;;;;;0.90;0.80;;;3.00;93.60;;;;;;5111022;28;21077;-77
2020/12/28 08:42:32;;;;;;;1.02;0.80;;;3.10;93.20;;;;;;5111829;28;20379;-77
2020/12/28 08:45:00;;;;;;;2.40;1.10;;;3.10;93.30;;;;;;5112235;28;20387;-77
2020/12/28 08:47:27;;;;;;;1.30;0.90;;;3.10;93.40;;;;;;5111451;28;20387;-77
2020/12/28 08:49:53;;;;;;;2.40;0.93;;;3.20;93.10;;;;;;5111786;28;20488;-77
2020/12/28 08:52:20;;;;;;;1.00;0.80;;;3.30;93.70;;;;;;5111970;28;20606;-77
2020/12/28 08:54:56;;;;;;;2.00;1.00;;;3.40;93.40;;;;;;5111791;28;20377;-77
2020/12/28 08:57:29;;;;;;;1.13;0.80;;;3.40;93.10;;;;;;5111455;28;20416;-77
2020/12/28 08:59:57;;;;;;;1.30;0.95;;;3.40;93.00;;;;;;5111611;28;20416;-77
2020/12/28 09:02:27;;;;;;;1.58;1.13;;;3.50;92.10;;;;;;5110431;28;20404;-77
2020/12/28 09:04:53;;;;;;;2.40;1.30;;;3.50;92.50;;;;;;5110274;28;20392;-77
2020/12/28 09:07:20;;;;;;;1.40;0.93;;;3.60;91.80;;;;;;5111412;28;20395;-77
2020/12/28 09:09:47;;;;;;;2.22;0.90;;;3.70;91.70;;;;;;5109973;28;20432;-77
2020/12/28 09:12:14;;;;;;;3.20;0.90;;;3.70;92.00;;;;;;5111356;28;20805;-77
2020/12/28 09:14:40;;;;;;;0.80;0.80;;;3.90;91.50;;;;;;5111612;28;20844;-78
2020/12/28 09:17:06;;;;;;;1.10;0.93;;;4.00;91.80;;;;;;5110801;28;20415;-78
2020/12/28 09:19:32;;;;;;;2.00;0.90;;;4.00;90.90;;;;;;5111614;28;20381;-77
2020/12/28 09:21:59;;;;;;;1.75;0.80;;;4.00;91.30;;;;;;5110959;28;20706;-78
2020/12/28 09:24:25;;;;;;;0.93;0.70;;;4.10;90.30;;;;;;5111277;28;20399;-78
2020/12/28 09:26:51;;;;;;;1.35;0.70;;;4.20;90.20;;;;;;5110602;28;20388;-78
2020/12/28 09:29:17;;;;;;;3.28;0.65;;;4.20;89.60;;;;;;5109786;28;20433;-77
2020/12/28 09:31:42;;;;;;;0.60;0.50;;;4.10;90.10;;;;;;5109814;28;20372;-78
2020/12/28 09:34:08;;;;;;;3.50;0.70;;;4.20;88.70;;;;;;5110005;28;20427;-78
2020/12/28 09:36:34;;;;;;;1.98;0.70;;;4.20;88.70;;;;;;5110526;28;20969;-78
2020/12/28 09:38:59;;;;;;;3.13;0.90;;;4.30;89.30;;;;;;5110060;28;20412;-78
2020/12/28 09:41:25;;;;;;;0.82;0.50;;;4.20;87.20;;;;;;5107781;28;20384;-78
2020/12/28 09:43:51;;;;;;;1.17;0.52;;;4.20;88.00;;;;;;5109271;28;20449;-77
2020/12/28 09:46:20;;;;;;;2.63;0.85;;;4.10;88.50;;;;;;5110004;28;20391;-78
2020/12/28 09:48:47;;;;;;;2.63;0.70;;;4.20;89.00;;;;;;5109916;28;20480;-77
2020/12/28 09:51:13;;;;;;;1.05;0.80;;;4.20;89.20;;;;;;5110499;28;20852;-78
2020/12/28 09:53:39;;;;;;;2.60;0.90;;;4.20;87.90;;;;;;5110303;28;20388;-78
2020/12/28 09:56:05;;;;;;;2.22;0.80;;;4.30;88.40;;;;;;5110594;28;20424;-78
2020/12/28 09:58:33;;;;;;;2.70;0.90;;;4.40;87.30;;;;;;5109173;28;20797;-78
2020/12/28 10:01:00;;;;;;;2.72;0.80;;;4.40;88.80;;;;;;5110943;28;20364;-78
2020/12/28 10:03:25;;;;;;;2.58;0.82;;;4.40;89.30;;;;;;5110736;28;20386;-78
2020/12/28 10:05:51;;;;;;;3.23;0.80;;;4.40;88.70;;;;;;5111119;28;20385;-78
2020/12/28 10:08:17;;;;;;;1.83;0.80;;;4.40;87.20;;;;;;5110351;28;20368;-78
2020/12/28 10:10:44;;;;;;;1.67;0.80;;;4.40;88.20;;;;;;5110638;28;20384;-78
2020/12/28 10:13:11;;;;;;;0.95;0.60;;;4.40;87.90;;;;;;5111257;28;20377;-78
2020/12/28 10:15:36;;;;;;;1.83;0.80;;;4.40;87.70;;;;;;5110628;28;20463;-78
2020/12/28 10:18:23;;;;;;;3.10;0.77;;;4.40;87.60;;;;;;5109009;28;20980;-78
2020/12/28 10:20:49;;;;;;;1.63;0.80;;;4.50;88.50;;;;;;5110186;28;20952;-78
2020/12/28 10:23:15;;;;;;;1.88;0.80;;;4.40;87.70;;;;;;5110803;28;20368;-79
2020/12/28 10:25:41;;;;;;;2.70;0.80;;;4.40;88.20;;;;;;5110528;28;20375;-79
2020/12/28 10:28:06;;;;;;;3.95;1.30;;;4.40;87.50;;;;;;5108937;28;20442;-79
2020/12/28 10:30:32;;;;;;;1.92;0.70;;;4.40;88.20;;;;;;5108764;28;20473;-78
2020/12/28 10:32:58;;;;;;;3.28;0.80;;;4.30;87.20;;;;;;5110380;28;20722;-79
2020/12/28 10:35:24;;;;;;;2.28;0.82;;;4.20;87.10;;;;;;5110172;28;20445;-79
2020/12/28 10:37:49;;;;;;;1.20;0.90;;;4.20;88.00;;;;;;5109801;28;20401;-79
2020/12/28 10:40:15;;;;;;;1.53;0.93;;;4.20;87.70;;;;;;5108483;28;20407;-79
2020/12/28 10:42:41;;;;;;;2.38;0.70;;;4.10;87.80;;;;;;5108803;28;20480;-79
2020/12/28 10:45:07;;;;;;;3.10;0.75;;;4.10;87.40;;;;;;5110241;28;20467;-79
2020/12/28 10:47:32;;;;;;;2.80;1.27;;;4.10;87.70;;;;;;5108577;28;20396;-79
2020/12/28 10:49:58;;;;;;;1.67;0.80;;;4.10;87.50;;;;;;5109269;28;20421;-79
2020/12/28 10:52:24;;;;;;;1.93;1.03;;;4.10;87.80;;;;;;5108907;28;20411;-79
2020/12/28 10:54:49;;;;;;;2.40;0.93;;;4.00;88.60;;;;;;5110599;28;20380;-79
2020/12/28 10:57:15;;;;;;;3.53;1.47;;;4.10;88.10;;;;;;5109797;28;20502;-79
2020/12/28 10:59:40;;;;;;;5.37;1.20;;;4.00;88.10;;;;;;5111891;28;20380;-80
2020/12/28 11:02:06;;;;;;;2.63;1.13;;;4.10;87.90;;;;;;5114047;28;20773;-79
2020/12/28 11:04:31;;;;;;;3.00;1.20;;;4.10;87.00;;;;;;5112894;28;20741;-79
2020/12/28 11:06:57;;;;;;;2.80;0.80;;;4.30;87.80;;;;;;5113413;28;20385;-79
2020/12/28 11:09:23;;;;;;;3.03;1.30;;;4.40;86.60;;;;;;5113545;28;20465;-79
2020/12/28 11:11:49;;;;;;;3.60;1.00;;;4.40;87.40;;;;;;5113969;28;20365;-79
2020/12/28 11:14:14;;;;;;;2.72;1.10;;;4.40;87.80;;;;;;5113865;28;20368;-80
2020/12/28 11:16:40;;;;;;;1.45;0.90;;;4.40;87.50;;;;;;5113147;28;20676;-79
2020/12/28 11:19:06;;;;;;;2.70;1.40;;;4.40;87.20;;;;;;5113590;28;20779;-80
2020/12/28 11:21:32;;;;;;;3.13;0.93;;;4.40;87.70;;;;;;5113617;28;20384;-79
2020/12/28 11:23:58;;;;;;;2.00;0.70;;;4.40;87.30;;;;;;5113602;28;20385;-79
2020/12/28 11:26:24;;;;;;;1.40;0.82;;;4.40;86.90;;;;;;5112493;28;20393;-79
2020/12/28 11:28:50;;;;;;;2.13;1.08;;;4.40;87.10;;;;;;5111591;28;20385;-79
2020/12/28 11:31:16;;;;;;;3.53;1.00;;;4.40;86.50;;;;;;5113601;28;20770;-79
2020/12/28 11:33:42;;;;;;;3.10;1.15;;;4.40;87.10;;;;;;5113337;28;20411;-79
2020/12/28 11:36:08;;;;;;;1.55;0.73;;;4.40;87.40;;;;;;5113536;28;20380;-79
2020/12/28 11:38:34;;;;;;;2.83;0.80;;;4.40;86.60;;;;;;5113081;28;20465;-80
2020/12/28 11:40:59;;;;;;;3.30;0.77;;;4.30;86.80;;;;;;5113167;28;20436;-79
2020/12/28 11:43:25;;;;;;;2.28;0.90;;;4.40;87.40;;;;;;5112033;28;20387;-80
2020/12/28 11:45:51;;;;;;;0.82;0.65;;;4.30;86.20;;;;;;5113157;28;20505;-80
2020/12/28 11:48:16;;;;;;;4.55;1.23;;;4.40;84.80;;;;;;5112624;28;20377;-79
2020/12/28 11:50:42;;;;;;;7.40;1.10;;;4.30;86.40;;;;;;5113052;28;20368;-80
2020/12/28 11:53:07;;;;;;;1.30;0.70;;;4.30;86.80;;;;;;5111792;28;20902;-79
2020/12/28 11:56:02;;;;;;;1.35;0.80;;;4.30;85.80;;;;;;5113128;28;20876;-80
2020/12/28 11:58:19;;;;;;;2.22;1.10;;;4.40;85.90;;;;;;5112288;28;20392;-79
2020/12/28 12:00:44;;;;;;;5.43;1.20;;;4.40;86.60;;;;;;5113135;28;20384;-80
2020/12/28 12:03:10;;;;;;;2.13;1.00;;;4.40;85.40;;;;;;5112701;28;20368;-79
2020/12/28 12:05:35;;;;;;;5.03;0.95;;;4.40;86.20;;;;;;5113259;28;20368;-80
2020/12/28 12:08:01;;;;;;;1.95;0.90;;;4.40;85.40;;;;;;5112396;28;20488;-79
2020/12/28 12:10:26;;;;;;;2.33;0.80;;;4.50;86.80;;;;;;5112867;28;20373;-80
2020/12/28 12:12:52;;;;;;;2.58;1.00;;;4.50;86.30;;;;;;5112745;28;20412;-79
2020/12/28 12:15:17;;;;;;;2.03;0.93;;;4.60;86.40;;;;;;5111766;28;20399;-80
2020/12/28 12:17:43;;;;;;;2.50;0.90;;;4.70;85.30;;;;;;5112324;28;20667;-80
2020/12/28 12:20:08;;;;;;;0.98;0.73;;;4.90;84.80;;;;;;5113102;28;20381;-80
2020/12/28 12:22:34;;;;;;;3.38;0.90;;;5.10;84.40;;;;;;5111267;28;20376;-80
2020/12/28 12:24:59;;;;;;;3.90;0.98;;;5.20;83.90;;;;;;5112625;28;20385;-79
2020/12/28 12:27:25;;;;;;;2.73;0.80;;;5.20;85.20;;;;;;5110517;28;20693;-80
2020/12/28 12:29:51;;;;;;;3.17;1.00;;;5.20;83.30;;;;;;5111264;28;20388;-80
2020/12/28 12:32:16;;;;;;;1.80;0.90;;;5.20;83.60;;;;;;5112479;28;20388;-80
2020/12/28 12:34:42;;;;;;;2.83;0.97;;;5.10;83.30;;;;;;5111008;28;20429;-80
2020/12/28 12:37:08;;;;;;;0.80;0.70;;;5.00;83.10;;;;;;5111859;28;20452;-79
2020/12/28 12:39:33;;;;;;;2.05;1.33;;;5.00;84.10;;;;;;5111711;28;20388;-79
2020/12/28 12:41:59;;;;;;;2.22;0.85;;;5.00;83.90;;;;;;5110899;28;20383;-80
2020/12/28 12:44:24;;;;;;;5.50;1.20;;;4.90;82.70;;;;;;5111666;28;20380;-80
2020/12/28 12:46:50;;;;;;;1.43;1.10;;;4.90;83.40;;;;;;5111706;28;20376;-80
2020/12/28 12:49:15;;;;;;;2.80;1.50;;;4.90;82.70;;;;;;5111767;28;20447;-80
2020/12/28 12:51:41;;;;;;;2.57;1.07;;;4.90;83.20;;;;;;5110735;28;20458;-80
2020/12/28 12:54:06;;;;;;;1.60;1.20;;;4.90;83.20;;;;;;5110526;28;20399;-80
2020/12/28 12:56:32;;;;;;;2.90;1.20;;;4.90;84.10;;;;;;5110259;28;20416;-80